createdAt,value
2022-10-21T00:00:10.449Z,4.90
2022-10-21T00:02:37.769Z,1.97
2022-10-21T00:05:05.279Z,3.23
2022-10-21T00:07:32.432Z,2.73
2022-10-21T00:09:59.584Z,5.17
2022-10-21T00:12:28.785Z,3.10
2022-10-21T00:14:57.274Z,4.10
2022-10-21T00:17:24.644Z,3.23
2022-10-21T00:19:51.782Z,2.93
2022-10-21T00:22:18.884Z,3.87
2022-10-21T00:24:46.008Z,2.80
2022-10-21T00:27:13.107Z,3.27
2022-10-21T00:29:40.211Z,3.77
2022-10-21T00:32:07.335Z,2.70
2022-10-21T00:34:34.456Z,3.40
2022-10-21T00:37:01.557Z,2.30
2022-10-21T00:39:28.757Z,6.50
2022-10-21T00:41:55.936Z,3.37
2022-10-21T00:44:23.125Z,3.20
2022-10-21T00:46:54.976Z,6.10
2022-10-21T00:49:25.860Z,5.77
2022-10-21T00:51:56.508Z,2.83
2022-10-21T00:54:24.690Z,3.23
2022-10-21T00:56:52.898Z,4.07
2022-10-21T00:59:20.297Z,5.40
2022-10-21T01:01:48.937Z,3.13
2022-10-21T01:04:16.107Z,2.73
2022-10-21T01:06:43.299Z,3.63
2022-10-21T01:09:10.635Z,3.40
2022-10-21T01:11:42.507Z,5.67
2022-10-21T01:14:21.774Z,4.40
2022-10-21T01:16:54.606Z,2.30
2022-10-21T01:19:21.672Z,4.00
2022-10-21T01:21:54.283Z,4.00
2022-10-21T01:24:27.441Z,5.27
2022-10-21T01:27:06.448Z,2.77
2022-10-21T01:29:42.585Z,5.63
2022-10-21T01:32:24.774Z,3.93
2022-10-21T01:35:13.358Z,3.03
2022-10-21T01:37:46.572Z,3.50
2022-10-21T01:40:26.553Z,4.20
2022-10-21T01:42:55.595Z,4.50
2022-10-21T01:45:29.101Z,3.80
2022-10-21T01:48:22.431Z,3.27
2022-10-21T01:50:52.736Z,5.40
2022-10-21T01:53:21.696Z,2.17
2022-10-21T01:55:49.847Z,5.87
2022-10-21T01:58:19.653Z,3.00
2022-10-21T02:00:47.694Z,4.00
2022-10-21T02:03:18.164Z,4.73
2022-10-21T02:05:45.285Z,3.93
2022-10-21T02:08:12.437Z,5.20
2022-10-21T02:10:41.277Z,4.17
2022-10-21T02:13:10.344Z,4.90
2022-10-21T02:15:38.544Z,4.53
2022-10-21T02:18:07.350Z,4.50
2022-10-21T02:20:36.858Z,4.97
2022-10-21T02:23:04.480Z,5.37
2022-10-21T02:25:33.646Z,4.37
2022-10-21T02:28:01.173Z,5.67
2022-10-21T02:30:32.491Z,4.53
2022-10-21T02:33:09.793Z,4.07
2022-10-21T02:35:36.888Z,3.90
2022-10-21T02:38:03.960Z,3.73
2022-10-21T02:40:35.471Z,4.03
2022-10-21T02:43:07.598Z,4.53
2022-10-21T02:45:36.375Z,3.37
2022-10-21T02:48:04.139Z,3.60
2022-10-21T02:50:31.230Z,5.40
2022-10-21T02:52:58.322Z,4.90
2022-10-21T02:55:25.576Z,3.80
2022-10-21T02:57:52.681Z,4.73
2022-10-21T03:00:19.880Z,4.47
2022-10-21T03:02:47.031Z,4.40
2022-10-21T03:05:14.172Z,5.37
2022-10-21T03:07:41.800Z,5.57
2022-10-21T03:10:09.546Z,5.63
2022-10-21T03:12:36.664Z,5.07
2022-10-21T03:15:04.100Z,5.20
2022-10-21T03:17:31.219Z,6.97
2022-10-21T03:19:58.318Z,3.73
2022-10-21T03:22:25.451Z,4.17
2022-10-21T03:24:52.584Z,4.03
2022-10-21T03:27:19.745Z,4.67
2022-10-21T03:29:46.938Z,5.97
2022-10-21T03:32:14.097Z,4.67
2022-10-21T03:34:41.191Z,5.00
2022-10-21T03:37:08.297Z,5.07
2022-10-21T03:39:35.390Z,4.70
2022-10-21T03:42:02.492Z,5.00
2022-10-21T03:44:29.660Z,5.10
2022-10-21T03:46:56.864Z,4.30
2022-10-21T03:49:24.061Z,5.53
2022-10-21T03:51:51.192Z,6.60
2022-10-21T03:54:18.736Z,5.03
2022-10-21T03:56:46.996Z,4.13
2022-10-21T03:59:14.149Z,4.40
2022-10-21T04:01:41.300Z,5.77
2022-10-21T04:04:08.483Z,4.43
2022-10-21T04:06:35.579Z,4.80
2022-10-21T04:09:02.810Z,4.43
2022-10-21T04:11:29.998Z,4.87
2022-10-21T04:13:57.147Z,6.07
2022-10-21T04:16:24.327Z,5.93
2022-10-21T04:18:51.448Z,5.03
2022-10-21T04:21:18.580Z,6.73
2022-10-21T04:23:45.777Z,6.27
2022-10-21T04:26:12.948Z,5.40
2022-10-21T04:28:40.082Z,4.87
2022-10-21T04:31:07.183Z,6.33
2022-10-21T04:33:34.273Z,5.77
2022-10-21T04:36:01.448Z,5.70
2022-10-21T04:38:28.853Z,5.03
2022-10-21T04:40:56.817Z,5.27
2022-10-21T04:43:24.142Z,6.13
2022-10-21T04:45:51.243Z,7.13
2022-10-21T04:48:18.420Z,6.33
2022-10-21T04:50:45.520Z,11.23
2022-10-21T04:53:12.632Z,5.27
2022-10-21T04:55:40.402Z,6.50
2022-10-21T04:58:07.862Z,7.37
2022-10-21T05:00:34.997Z,5.97
2022-10-21T05:03:02.241Z,6.50
2022-10-21T05:05:29.371Z,6.33
2022-10-21T05:07:56.459Z,6.47
2022-10-21T05:10:24.276Z,8.83
2022-10-21T05:12:51.640Z,6.17
2022-10-21T05:15:18.804Z,6.77
2022-10-21T05:17:45.911Z,6.50
2022-10-21T05:20:13.086Z,7.60
2022-10-21T05:22:40.684Z,7.93
2022-10-21T05:25:08.427Z,6.53
2022-10-21T05:27:35.542Z,7.53
2022-10-21T05:30:02.835Z,7.87
2022-10-21T05:32:29.934Z,7.73
2022-10-21T05:34:57.040Z,8.13
2022-10-21T05:37:24.213Z,8.73
2022-10-21T05:39:51.320Z,6.53
2022-10-21T05:42:18.480Z,6.13
2022-10-21T05:44:45.605Z,7.83
2022-10-21T05:47:12.750Z,8.17
2022-10-21T05:49:39.874Z,7.17
2022-10-21T05:52:07.003Z,8.10
2022-10-21T05:54:34.103Z,8.27
2022-10-21T05:57:02.484Z,7.13
2022-10-21T05:59:29.634Z,7.77
2022-10-21T06:01:56.776Z,8.43
2022-10-21T06:04:23.926Z,9.43
2022-10-21T06:06:51.151Z,8.00
2022-10-21T06:09:18.328Z,7.70
2022-10-21T06:11:45.459Z,8.37
2022-10-21T06:14:12.568Z,9.37
2022-10-21T06:16:39.643Z,8.67
2022-10-21T06:19:06.981Z,9.15
2022-10-21T06:21:34.200Z,8.50
2022-10-21T06:24:01.327Z,11.47
2022-10-21T06:26:30.924Z,8.00
2022-10-21T06:29:00.406Z,8.53
2022-10-21T06:31:27.895Z,10.13
2022-10-21T06:33:55.020Z,8.80
2022-10-21T06:36:22.112Z,11.80
2022-10-21T06:38:49.266Z,9.57
2022-10-21T06:41:18.036Z,8.93
2022-10-21T06:43:45.246Z,11.60
2022-10-21T06:46:13.647Z,8.97
2022-10-21T06:48:41.048Z,8.77
2022-10-21T06:51:21.457Z,8.53
2022-10-21T06:53:51.753Z,10.03
2022-10-21T06:56:19.853Z,9.70
2022-10-21T06:58:48.932Z,11.30
2022-10-21T07:01:28.035Z,9.57
2022-10-21T07:04:01.543Z,11.17
2022-10-21T07:06:28.778Z,9.33
2022-10-21T07:08:59.510Z,9.47
2022-10-21T07:11:27.692Z,10.53
2022-10-21T07:13:54.913Z,11.33
2022-10-21T07:16:26.685Z,9.73
2022-10-21T07:18:54.154Z,9.57
2022-10-21T07:21:22.579Z,9.63
2022-10-21T07:23:55.584Z,10.87
2022-10-21T07:26:25.663Z,9.83
2022-10-21T07:28:52.857Z,10.40
2022-10-21T07:31:21.491Z,10.07
2022-10-21T07:33:49.094Z,9.00
2022-10-21T07:36:27.068Z,13.37
2022-10-21T07:38:54.889Z,8.73
2022-10-21T07:41:26.319Z,9.93
2022-10-21T07:43:54.004Z,8.47
2022-10-21T07:46:21.842Z,10.43
2022-10-21T07:48:49.275Z,8.70
2022-10-21T07:51:18.461Z,11.13
2022-10-21T07:53:45.602Z,10.17
2022-10-21T07:56:15.320Z,10.37
2022-10-21T07:58:43.027Z,10.70
2022-10-21T08:01:10.954Z,10.27
2022-10-21T08:03:38.690Z,9.37
2022-10-21T08:06:06.490Z,9.60
2022-10-21T08:08:33.992Z,8.40
2022-10-21T08:11:01.310Z,9.93
2022-10-21T08:13:28.637Z,10.03
2022-10-21T08:15:56.930Z,8.23
2022-10-21T08:18:24.593Z,10.40
2022-10-21T08:20:51.714Z,9.37
2022-10-21T08:23:19.966Z,10.13
2022-10-21T08:25:50.831Z,8.27
2022-10-21T08:28:18.542Z,11.93
2022-10-21T08:30:46.024Z,9.53
2022-10-21T08:33:13.884Z,10.03
2022-10-21T08:35:41.170Z,11.10
2022-10-21T08:38:08.423Z,10.77
2022-10-21T08:40:38.683Z,10.10
2022-10-21T08:43:25.690Z,11.17
2022-10-21T08:45:55.341Z,10.43
2022-10-21T08:48:25.301Z,10.33
2022-10-21T08:50:54.159Z,10.60
2022-10-21T08:53:24.375Z,8.23
2022-10-21T08:55:52.875Z,10.53
2022-10-21T08:58:21.998Z,9.77
2022-10-21T09:00:51.440Z,10.50
2022-10-21T09:03:18.580Z,10.30
2022-10-21T09:05:54.822Z,12.17
2022-10-21T09:08:42.038Z,10.80
2022-10-21T09:11:14.344Z,12.00
2022-10-21T09:14:01.308Z,12.37
2022-10-21T09:16:34.262Z,10.67
2022-10-21T09:19:07.954Z,9.83
2022-10-21T09:21:46.419Z,9.70
2022-10-21T09:24:15.975Z,10.83
2022-10-21T09:26:45.272Z,11.33
2022-10-21T09:29:21.141Z,9.57
2022-10-21T09:31:54.364Z,10.67
2022-10-21T09:34:43.418Z,12.20
2022-10-21T09:37:15.489Z,9.10
2022-10-21T09:39:46.464Z,10.27
2022-10-21T09:42:35.311Z,11.73
2022-10-21T09:45:01.045Z,10.33
2022-10-21T09:47:28.244Z,11.53
2022-10-21T09:50:13.830Z,9.43
2022-10-21T09:52:43.280Z,10.50
2022-10-21T09:55:13.502Z,9.30
2022-10-21T09:57:47.048Z,8.63
2022-10-21T10:00:14.428Z,8.97
2022-10-21T10:02:43.275Z,9.97
2022-10-21T10:05:28.975Z,8.43
2022-10-21T10:07:56.108Z,9.13
2022-10-21T10:10:33.795Z,8.87
2022-10-21T10:13:01.234Z,10.77
2022-10-21T10:15:38.673Z,8.63
2022-10-21T10:18:19.036Z,8.23
2022-10-21T10:20:46.131Z,11.73
2022-10-21T10:23:19.439Z,8.60
2022-10-21T10:25:50.473Z,8.70
2022-10-21T10:28:20.528Z,8.77
2022-10-21T10:30:49.206Z,8.93
2022-10-21T10:33:21.431Z,9.47
2022-10-21T10:35:49.864Z,9.20
2022-10-21T10:38:22.008Z,9.40
2022-10-21T10:40:49.542Z,9.50
2022-10-21T10:43:23.777Z,9.80
2022-10-21T10:45:54.321Z,8.87
2022-10-21T10:48:33.606Z,9.93
2022-10-21T10:51:00.713Z,8.77
2022-10-21T10:53:32.427Z,10.53
2022-10-21T10:56:02.084Z,11.97
2022-10-21T10:58:32.286Z,11.20
2022-10-21T11:01:01.376Z,9.93
2022-10-21T11:03:36.825Z,9.50
2022-10-21T11:06:09.153Z,9.80
2022-10-21T11:08:42.131Z,9.43
2022-10-21T11:11:15.884Z,10.17
2022-10-21T11:13:43.074Z,10.03
2022-10-21T11:16:45.169Z,9.33
2022-10-21T11:19:19.097Z,10.27
2022-10-21T11:21:53.086Z,9.50
2022-10-21T11:24:32.231Z,9.37
2022-10-21T11:27:03.393Z,10.17
2022-10-21T11:29:45.950Z,8.40
2022-10-21T11:32:23.520Z,11.67
2022-10-21T11:35:08.691Z,10.03
2022-10-21T11:37:41.993Z,11.13
2022-10-21T11:40:09.213Z,11.43
2022-10-21T11:42:43.662Z,11.17
2022-10-21T11:45:29.262Z,9.00
2022-10-21T11:48:03.313Z,9.87
2022-10-21T11:50:40.139Z,10.97
2022-10-21T11:53:19.332Z,11.90
2022-10-21T11:55:46.424Z,10.93
2022-10-21T11:58:22.456Z,10.70
2022-10-21T12:00:58.408Z,10.20
2022-10-21T12:03:48.065Z,10.30
2022-10-21T12:06:29.028Z,11.10
2022-10-21T12:09:01.566Z,9.40
2022-10-21T12:11:31.673Z,8.77
2022-10-21T12:14:01.148Z,9.87
2022-10-21T12:16:30.744Z,10.40
2022-10-21T12:19:01.190Z,11.17
2022-10-21T12:21:30.355Z,9.17
2022-10-21T12:24:17.731Z,10.00
2022-10-21T12:26:50.641Z,11.67
2022-10-21T12:29:24.107Z,8.90
2022-10-21T12:32:04.243Z,10.40
2022-10-21T12:34:31.382Z,11.47
2022-10-21T12:36:58.485Z,10.67
2022-10-21T12:39:34.950Z,10.83
2022-10-21T12:42:15.395Z,10.10
2022-10-21T12:44:53.075Z,9.97
2022-10-21T12:47:29.761Z,10.13
2022-10-21T12:50:15.308Z,10.60
2022-10-21T12:52:43.369Z,10.33
2022-10-21T12:55:24.443Z,9.40
2022-10-21T12:57:59.958Z,9.93
2022-10-21T13:00:29.833Z,9.77
2022-10-21T13:02:59.863Z,10.17
2022-10-21T13:05:46.928Z,11.30
2022-10-21T13:08:20.063Z,10.77
2022-10-21T13:11:05.435Z,9.47
2022-10-21T13:13:35.708Z,11.17
2022-10-21T13:16:23.771Z,10.67
2022-10-21T13:18:53.895Z,11.67
2022-10-21T13:21:31.234Z,9.70
2022-10-21T13:24:05.193Z,10.87
2022-10-21T13:26:32.465Z,9.07
2022-10-21T13:29:01.697Z,9.30
2022-10-21T13:31:29.212Z,9.10
2022-10-21T13:33:56.972Z,9.73
2022-10-21T13:39:23.759Z,11.10
2022-10-21T13:42:05.347Z,9.23
2022-10-21T13:44:40.814Z,9.47
2022-10-21T13:47:20.149Z,9.70
2022-10-21T13:49:54.204Z,9.60
2022-10-21T13:52:21.358Z,9.17
2022-10-21T13:54:56.684Z,8.20
2022-10-21T13:57:23.884Z,9.53
2022-10-21T14:00:09.027Z,9.03
2022-10-21T14:02:36.243Z,9.17
2022-10-21T14:05:03.580Z,9.30
2022-10-21T14:07:30.783Z,8.87
2022-10-21T14:09:58.863Z,8.63
2022-10-21T14:12:26.058Z,8.33
2022-10-21T14:14:54.175Z,8.50
2022-10-21T14:17:23.353Z,8.67
2022-10-21T14:20:10.722Z,8.63
2022-10-21T14:22:38.055Z,9.33
2022-10-21T14:25:07.384Z,9.17
2022-10-21T14:27:35.555Z,10.87
2022-10-21T14:30:04.589Z,13.00
2022-10-21T14:32:31.948Z,8.67
2022-10-21T14:34:59.290Z,9.10
2022-10-21T14:37:26.448Z,9.33
2022-10-21T14:39:53.630Z,8.70
2022-10-21T14:42:24.557Z,8.07
2022-10-21T14:44:52.945Z,10.60
2022-10-21T14:47:22.360Z,9.43
2022-10-21T14:49:51.575Z,10.10
2022-10-21T14:52:34.885Z,9.60
2022-10-21T14:55:03.833Z,8.60
2022-10-21T14:57:33.992Z,9.00
2022-10-21T15:00:01.380Z,9.03
2022-10-21T15:02:34.347Z,8.17
2022-10-21T15:05:02.685Z,9.97
2022-10-21T15:07:34.372Z,10.03
2022-10-21T15:10:04.403Z,8.23
2022-10-21T15:12:48.618Z,8.63
2022-10-21T15:15:35.777Z,9.03
2022-10-21T15:18:05.287Z,9.20
2022-10-21T15:20:34.732Z,9.57
2022-10-21T15:23:01.867Z,8.70
2022-10-21T15:25:29.693Z,9.47
2022-10-21T15:27:59.961Z,9.23
2022-10-21T15:30:34.514Z,8.40
2022-10-21T15:33:01.695Z,8.50
2022-10-21T15:35:28.847Z,10.37
2022-10-21T15:37:56.139Z,8.73
2022-10-21T15:40:23.501Z,10.07
2022-10-21T15:42:50.720Z,8.57
2022-10-21T15:45:21.187Z,9.83
2022-10-21T15:47:53.621Z,11.10
2022-10-21T15:50:24.377Z,8.73
2022-10-21T15:52:51.589Z,9.00
2022-10-21T15:55:18.767Z,9.17
2022-10-21T15:57:45.942Z,8.17
2022-10-21T16:00:19.047Z,9.77
2022-10-21T16:02:51.518Z,9.07
2022-10-21T16:05:19.623Z,9.23
2022-10-21T16:07:46.824Z,9.60
2022-10-21T16:10:19.028Z,8.70
2022-10-21T16:12:46.604Z,9.90
2022-10-21T16:15:14.362Z,8.80
2022-10-21T16:17:45.357Z,9.90
2022-10-21T16:22:46.163Z,11.23
2022-10-21T16:25:13.949Z,9.00
2022-10-21T16:27:55.574Z,9.63
2022-10-21T16:30:30.795Z,7.73
2022-10-21T16:32:57.901Z,8.80
2022-10-21T16:35:25.343Z,8.73
2022-10-21T16:37:52.456Z,7.53
2022-10-21T16:40:22.315Z,7.40
2022-10-21T16:42:50.512Z,7.90
2022-10-21T16:45:18.569Z,8.67
2022-10-21T16:47:48.528Z,7.73
2022-10-21T16:50:23.245Z,7.93
2022-10-21T16:52:50.415Z,7.93
2022-10-21T16:55:17.638Z,1847.53
2022-10-21T16:57:44.862Z,1999.90
2022-10-21T17:00:12.692Z,1584.57
2022-10-21T17:02:40.668Z,768.33
2022-10-21T17:05:08.527Z,682.10
2022-10-21T17:07:35.681Z,11.60
2022-10-21T17:10:02.877Z,22.97
2022-10-21T17:12:32.704Z,12.52
2022-10-21T17:14:59.868Z,8.20
2022-10-21T17:17:27.021Z,7.70
2022-10-21T17:19:54.137Z,7.83
2022-10-21T17:22:21.254Z,7.83
2022-10-21T17:24:49.189Z,8.50
2022-10-21T17:27:19.631Z,6.87
2022-10-21T17:29:47.318Z,8.27
2022-10-21T17:32:14.503Z,7.50
2022-10-21T17:34:41.886Z,8.57
2022-10-21T17:37:12.221Z,8.43
2022-10-21T17:39:39.376Z,8.03
2022-10-21T17:42:06.612Z,9.27
2022-10-21T17:44:33.848Z,8.07
2022-10-21T17:47:00.945Z,8.30
2022-10-21T17:49:28.050Z,8.67
2022-10-21T17:51:55.212Z,7.87
2022-10-21T17:54:25.985Z,8.63
2022-10-21T17:56:56.753Z,8.17
2022-10-21T17:59:24.296Z,8.63
2022-10-21T18:01:51.500Z,7.50
2022-10-21T18:04:18.650Z,7.97
2022-10-21T18:06:45.749Z,6.90
2022-10-21T18:09:12.987Z,8.50
2022-10-21T18:11:40.180Z,7.73
2022-10-21T18:14:07.289Z,8.17
2022-10-21T18:16:34.910Z,7.77
2022-10-21T18:19:03.215Z,7.67
2022-10-21T18:21:31.039Z,8.70
2022-10-21T18:23:58.169Z,8.15
2022-10-21T18:26:26.919Z,7.67
2022-10-21T18:28:57.048Z,9.87
2022-10-21T18:31:24.950Z,11.77
2022-10-21T18:33:54.740Z,8.43
2022-10-21T18:36:21.933Z,8.00
2022-10-21T18:38:49.322Z,7.20
2022-10-21T18:41:20.553Z,9.17
2022-10-21T18:43:52.513Z,8.60
2022-10-21T18:46:20.272Z,8.27
2022-10-21T18:48:47.455Z,8.90
2022-10-21T18:51:19.105Z,10.07
2022-10-21T18:53:49.887Z,7.43
2022-10-21T18:56:19.836Z,7.83
2022-10-21T18:58:47.135Z,7.93
2022-10-21T19:01:17.646Z,9.50
2022-10-21T19:03:44.973Z,8.10
2022-10-21T19:06:16.013Z,9.07
2022-10-21T19:08:43.221Z,8.83
2022-10-21T19:11:10.327Z,7.20
2022-10-21T19:13:37.510Z,7.40
2022-10-21T19:16:04.677Z,8.30
2022-10-21T19:18:31.787Z,7.97
2022-10-21T19:20:58.945Z,7.70
2022-10-21T19:23:27.728Z,7.63
2022-10-21T19:25:54.897Z,9.20
2022-10-21T19:28:22.121Z,8.47
2022-10-21T19:30:49.225Z,8.03
2022-10-21T19:33:16.425Z,9.03
2022-10-21T19:35:43.565Z,7.97
2022-10-21T19:38:11.651Z,8.20
2022-10-21T19:43:19.789Z,7.93
2022-10-21T19:45:46.892Z,8.03
2022-10-21T19:48:16.038Z,8.57
2022-10-21T19:50:46.837Z,8.00
2022-10-21T19:53:14.187Z,9.77
2022-10-21T19:55:41.349Z,9.50
2022-10-21T19:58:08.464Z,8.93
2022-10-21T20:00:36.575Z,8.23
2022-10-21T20:03:04.600Z,8.43
2022-10-21T20:05:34.499Z,10.27
2022-10-21T20:08:01.603Z,8.43
2022-10-21T20:10:28.853Z,8.50
2022-10-21T20:12:55.958Z,10.00
2022-10-21T20:15:23.068Z,8.40
2022-10-21T20:17:50.221Z,8.70
2022-10-21T20:20:17.319Z,9.43
2022-10-21T20:22:44.441Z,9.80
2022-10-21T20:25:12.367Z,10.40
2022-10-21T20:27:39.724Z,9.57
2022-10-21T20:30:08.448Z,9.13
2022-10-21T20:32:35.619Z,9.53
2022-10-21T20:35:02.773Z,10.00
2022-10-21T20:37:29.902Z,9.87
2022-10-21T20:39:57.005Z,10.67
2022-10-21T20:42:24.102Z,10.93
2022-10-21T20:44:51.303Z,10.20
2022-10-21T20:47:19.143Z,11.83
2022-10-21T20:49:46.281Z,11.73
2022-10-21T20:52:13.904Z,11.87
2022-10-21T20:54:41.029Z,10.77
2022-10-21T20:57:08.150Z,10.63
2022-10-21T20:59:35.322Z,10.77
2022-10-21T21:02:02.432Z,11.43
2022-10-21T21:04:29.631Z,10.23
2022-10-21T21:06:56.727Z,11.00
2022-10-21T21:12:11.039Z,11.50
2022-10-21T21:14:38.149Z,10.83
2022-10-21T21:17:05.529Z,12.67
2022-10-21T21:19:32.664Z,10.73
2022-10-21T21:21:59.824Z,12.07
2022-10-21T21:24:26.948Z,11.10
2022-10-21T21:26:54.098Z,10.87
2022-10-21T21:29:21.212Z,10.50
2022-10-21T21:31:48.298Z,10.73
2022-10-21T21:34:15.538Z,11.00
2022-10-21T21:36:42.688Z,10.10
2022-10-21T21:39:11.109Z,10.33
2022-10-21T21:41:38.318Z,10.77
2022-10-21T21:44:06.438Z,9.80
2022-10-21T21:46:33.666Z,9.13
2022-10-21T21:49:05.224Z,11.63
2022-10-21T21:51:33.667Z,12.30
2022-10-21T21:54:00.786Z,11.20
2022-10-21T21:56:28.337Z,11.13
2022-10-21T21:58:57.569Z,10.77
2022-10-21T22:01:26.030Z,10.77
2022-10-21T22:03:53.331Z,11.67
2022-10-21T22:06:21.653Z,11.53
2022-10-21T22:08:49.204Z,9.77
2022-10-21T22:11:17.857Z,10.70
2022-10-21T22:13:45.157Z,10.53
2022-10-21T22:16:13.319Z,12.53
2022-10-21T22:18:40.806Z,10.73
2022-10-21T22:21:09.253Z,11.47
2022-10-21T22:23:36.783Z,10.50
2022-10-21T22:26:03.992Z,10.70
2022-10-21T22:28:31.141Z,10.67
2022-10-21T22:31:00.083Z,11.60
2022-10-21T22:33:27.454Z,11.13
2022-10-21T22:35:54.612Z,10.60
2022-10-21T22:38:21.776Z,10.03
2022-10-21T22:40:52.696Z,10.03
2022-10-21T22:43:19.904Z,11.03
2022-10-21T22:45:48.167Z,10.30
2022-10-21T22:48:15.633Z,9.93
2022-10-21T22:50:43.054Z,9.20
2022-10-21T22:53:10.543Z,11.63
2022-10-21T22:55:39.382Z,8.90
2022-10-21T22:58:07.201Z,10.57
2022-10-21T23:00:34.426Z,10.07
2022-10-21T23:03:03.229Z,10.07
2022-10-21T23:05:33.153Z,9.30
2022-10-21T23:08:00.355Z,9.47
2022-10-21T23:10:27.484Z,9.03
2022-10-21T23:12:54.576Z,9.57
2022-10-21T23:15:21.704Z,10.53
2022-10-21T23:17:48.820Z,10.80
2022-10-21T23:20:16.017Z,9.97
2022-10-21T23:22:43.315Z,9.73
2022-10-21T23:25:10.552Z,9.60
2022-10-21T23:27:37.661Z,10.23
2022-10-21T23:30:05.060Z,9.67
2022-10-21T23:32:32.197Z,10.10
2022-10-21T23:34:59.302Z,9.13
2022-10-21T23:37:26.405Z,9.90
2022-10-21T23:39:53.560Z,10.50
2022-10-21T23:42:20.651Z,8.53
2022-10-21T23:44:47.810Z,10.50
2022-10-21T23:47:14.919Z,9.17
2022-10-21T23:49:42.053Z,10.30
2022-10-21T23:52:09.200Z,10.83
2022-10-21T23:54:36.347Z,9.83
2022-10-21T23:57:03.613Z,9.00
2022-10-21T23:59:30.726Z,8.77
